sensor_id;sensor_type;location;lat;lon;timestamp;pressure;altitude;pressure_sealevel;temperature;humidity
49377;BME280;35253;34.688;33.040;2023-02-16T00:00:42;101793.53;;;11.28;72.04
49377;BME280;35253;34.688;33.040;2023-02-16T00:03:11;101796.88;;;11.34;71.91
49377;BME280;35253;34.688;33.040;2023-02-16T00:05:38;101798.88;;;11.28;72.08
49377;BME280;35253;34.688;33.040;2023-02-16T00:08:03;101796.00;;;11.33;71.95
49377;BME280;35253;34.688;33.040;2023-02-16T00:10:30;101801.81;;;11.43;71.83
49377;BME280;35253;34.688;33.040;2023-02-16T00:12:56;101791.13;;;11.43;72.89
49377;BME280;35253;34.688;33.040;2023-02-16T00:15:40;101788.53;;;11.41;72.86
49377;BME280;35253;34.688;33.040;2023-02-16T00:18:13;101795.09;;;11.34;71.45
49377;BME280;35253;34.688;33.040;2023-02-16T00:20:40;101799.19;;;11.22;70.96
49377;BME280;35253;34.688;33.040;2023-02-16T00:23:05;101794.09;;;11.16;72.94
49377;BME280;35253;34.688;33.040;2023-02-16T00:25:31;101795.41;;;11.06;75.27
49377;BME280;35253;34.688;33.040;2023-02-16T00:27:56;101791.56;;;11.13;75.99
49377;BME280;35253;34.688;33.040;2023-02-16T00:30:22;101789.16;;;11.07;77.97
49377;BME280;35253;34.688;33.040;2023-02-16T00:32:47;101786.19;;;10.93;79.96
49377;BME280;35253;34.688;33.040;2023-02-16T00:35:20;101790.22;;;11.03;80.04
49377;BME280;35253;34.688;33.040;2023-02-16T00:37:46;101798.22;;;11.03;82.33
49377;BME280;35253;34.688;33.040;2023-02-16T00:40:12;101795.31;;;11.09;83.75
49377;BME280;35253;34.688;33.040;2023-02-16T00:42:38;101797.84;;;11.12;84.77
49377;BME280;35253;34.688;33.040;2023-02-16T00:45:04;101799.28;;;11.19;84.97
49377;BME280;35253;34.688;33.040;2023-02-16T00:47:36;101797.00;;;11.10;83.71
49377;BME280;35253;34.688;33.040;2023-02-16T00:50:44;101797.19;;;11.27;86.72
49377;BME280;35253;34.688;33.040;2023-02-16T00:52:50;101793.94;;;10.79;86.32
49377;BME280;35253;34.688;33.040;2023-02-16T00:55:17;101789.53;;;10.98;85.96
49377;BME280;35253;34.688;33.040;2023-02-16T01:02:47;101794.69;;;11.23;88.89
49377;BME280;35253;34.688;33.040;2023-02-16T01:05:13;101796.50;;;11.22;90.40
49377;BME280;35253;34.688;33.040;2023-02-16T01:07:38;101795.22;;;11.31;89.59
49377;BME280;35253;34.688;33.040;2023-02-16T01:10:22;101800.88;;;11.23;90.85
49377;BME280;35253;34.688;33.040;2023-02-16T01:13:06;101802.78;;;11.21;91.24
49377;BME280;35253;34.688;33.040;2023-02-16T01:15:32;101794.81;;;11.20;91.31
49377;BME280;35253;34.688;33.040;2023-02-16T01:17:57;101801.03;;;11.20;89.45
49377;BME280;35253;34.688;33.040;2023-02-16T01:20:23;101802.38;;;11.30;80.62
49377;BME280;35253;34.688;33.040;2023-02-16T01:22:49;101800.56;;;10.91;85.89
49377;BME280;35253;34.688;33.040;2023-02-16T01:25:14;101800.84;;;11.05;84.10
49377;BME280;35253;34.688;33.040;2023-02-16T01:27:40;101799.34;;;10.98;86.22
49377;BME280;35253;34.688;33.040;2023-02-16T01:30:06;101802.22;;;10.93;86.90
49377;BME280;35253;34.688;33.040;2023-02-16T01:32:32;101801.97;;;10.99;86.69
49377;BME280;35253;34.688;33.040;2023-02-16T01:34:58;101799.16;;;11.02;88.59
49377;BME280;35253;34.688;33.040;2023-02-16T01:37:23;101806.66;;;11.14;92.55
49377;BME280;35253;34.688;33.040;2023-02-16T01:39:49;101808.66;;;11.09;94.03
49377;BME280;35253;34.688;33.040;2023-02-16T01:42:34;101810.09;;;11.16;95.28
49377;BME280;35253;34.688;33.040;2023-02-16T01:45:12;101806.91;;;11.08;97.02
49377;BME280;35253;34.688;33.040;2023-02-16T01:47:41;101806.38;;;11.20;96.34
49377;BME280;35253;34.688;33.040;2023-02-16T01:50:13;101806.75;;;11.11;95.96
49377;BME280;35253;34.688;33.040;2023-02-16T01:52:44;101811.22;;;11.11;97.64
49377;BME280;35253;34.688;33.040;2023-02-16T01:55:22;101805.69;;;11.15;97.85
49377;BME280;35253;34.688;33.040;2023-02-16T01:57:49;101808.38;;;11.15;95.54
49377;BME280;35253;34.688;33.040;2023-02-16T02:03:06;101801.44;;;11.11;94.28
49377;BME280;35253;34.688;33.040;2023-02-16T02:05:53;101808.50;;;11.12;93.83
49377;BME280;35253;34.688;33.040;2023-02-16T02:08:41;101811.22;;;11.11;93.09
49377;BME280;35253;34.688;33.040;2023-02-16T02:13:44;101808.09;;;11.21;90.17
49377;BME280;35253;34.688;33.040;2023-02-16T02:16:12;101811.31;;;11.29;88.50
49377;BME280;35253;34.688;33.040;2023-02-16T02:18:40;101817.03;;;11.20;87.96
49377;BME280;35253;34.688;33.040;2023-02-16T02:26:38;101811.75;;;11.19;94.80
49377;BME280;35253;34.688;33.040;2023-02-16T02:29:19;101806.56;;;10.96;95.27
49377;BME280;35253;34.688;33.040;2023-02-16T02:32:09;101812.19;;;10.68;94.93
49377;BME280;35253;34.688;33.040;2023-02-16T02:34:52;101816.06;;;10.61;92.81
49377;BME280;35253;34.688;33.040;2023-02-16T02:37:26;101816.41;;;10.73;92.30
49377;BME280;35253;34.688;33.040;2023-02-16T02:43:13;101814.50;;;10.97;95.26
49377;BME280;35253;34.688;33.040;2023-02-16T02:45:23;101819.44;;;11.06;94.35
49377;BME280;35253;34.688;33.040;2023-02-16T02:47:51;101820.97;;;11.12;92.68
49377;BME280;35253;34.688;33.040;2023-02-16T02:53:01;101818.38;;;10.90;97.13
49377;BME280;35253;34.688;33.040;2023-02-16T02:55:27;101829.16;;;10.87;96.68
49377;BME280;35253;34.688;33.040;2023-02-16T02:58:12;101830.50;;;10.97;94.67
49377;BME280;35253;34.688;33.040;2023-02-16T03:00:56;101829.72;;;10.95;96.15
49377;BME280;35253;34.688;33.040;2023-02-16T03:05:53;101833.50;;;10.90;95.56
49377;BME280;35253;34.688;33.040;2023-02-16T03:08:20;101829.56;;;10.98;94.41
49377;BME280;35253;34.688;33.040;2023-02-16T03:10:47;101823.44;;;10.96;94.15
49377;BME280;35253;34.688;33.040;2023-02-16T03:13:39;101834.72;;;11.03;96.93
49377;BME280;35253;34.688;33.040;2023-02-16T03:16:08;101837.84;;;10.92;100.00
49377;BME280;35253;34.688;33.040;2023-02-16T03:18:34;101838.72;;;10.71;100.00
49377;BME280;35253;34.688;33.040;2023-02-16T03:21:19;101830.28;;;10.81;100.00
49377;BME280;35253;34.688;33.040;2023-02-16T03:24:04;101836.50;;;10.82;100.00
49377;BME280;35253;34.688;33.040;2023-02-16T03:26:50;101838.09;;;10.86;100.00
49377;BME280;35253;34.688;33.040;2023-02-16T03:29:35;101850.25;;;10.93;100.00
49377;BME280;35253;34.688;33.040;2023-02-16T03:32:01;101851.84;;;10.97;100.00
49377;BME280;35253;34.688;33.040;2023-02-16T03:34:27;101855.09;;;11.05;100.00
49377;BME280;35253;34.688;33.040;2023-02-16T03:36:54;101854.72;;;10.71;100.00
49377;BME280;35253;34.688;33.040;2023-02-16T03:39:24;101855.72;;;10.90;100.00
49377;BME280;35253;34.688;33.040;2023-02-16T03:41:51;101861.94;;;10.91;100.00
49377;BME280;35253;34.688;33.040;2023-02-16T03:44:17;101872.78;;;10.86;100.00
49377;BME280;35253;34.688;33.040;2023-02-16T03:46:42;101884.28;;;10.88;100.00
49377;BME280;35253;34.688;33.040;2023-02-16T03:49:08;101883.41;;;10.88;100.00
49377;BME280;35253;34.688;33.040;2023-02-16T03:51:33;101891.22;;;10.49;100.00
49377;BME280;35253;34.688;33.040;2023-02-16T03:53:59;101886.69;;;10.27;100.00
49377;BME280;35253;34.688;33.040;2023-02-16T03:56:24;101881.97;;;10.11;100.00
49377;BME280;35253;34.688;33.040;2023-02-16T03:58:49;101884.38;;;10.42;100.00
49377;BME280;35253;34.688;33.040;2023-02-16T04:01:15;101898.53;;;10.44;100.00
49377;BME280;35253;34.688;33.040;2023-02-16T04:03:40;101892.84;;;10.53;100.00
49377;BME280;35253;34.688;33.040;2023-02-16T04:06:06;101908.69;;;10.56;100.00
49377;BME280;35253;34.688;33.040;2023-02-16T04:08:31;101914.66;;;10.62;100.00
49377;BME280;35253;34.688;33.040;2023-02-16T04:10:57;101908.28;;;10.21;100.00
49377;BME280;35253;34.688;33.040;2023-02-16T04:13:23;101912.91;;;10.39;100.00
49377;BME280;35253;34.688;33.040;2023-02-16T04:15:48;101909.94;;;10.47;100.00
49377;BME280;35253;34.688;33.040;2023-02-16T04:18:14;101919.72;;;10.47;100.00
49377;BME280;35253;34.688;33.040;2023-02-16T04:20:39;101921.34;;;10.51;100.00
49377;BME280;35253;34.688;33.040;2023-02-16T04:23:05;101928.06;;;10.61;100.00
49377;BME280;35253;34.688;33.040;2023-02-16T04:25:30;101931.28;;;10.69;100.00
49377;BME280;35253;34.688;33.040;2023-02-16T04:27:56;101941.97;;;10.69;100.00
49377;BME280;35253;34.688;33.040;2023-02-16T04:30:23;101931.44;;;10.19;100.00
49377;BME280;35253;34.688;33.040;2023-02-16T04:32:49;101939.78;;;10.33;100.00
49377;BME280;35253;34.688;33.040;2023-02-16T04:35:14;101950.22;;;10.39;100.00
49377;BME280;35253;34.688;33.040;2023-02-16T04:37:40;101955.31;;;10.46;100.00
49377;BME280;35253;34.688;33.040;2023-02-16T04:40:06;101961.38;;;10.49;100.00
49377;BME280;35253;34.688;33.040;2023-02-16T04:42:32;101957.75;;;10.52;100.00
49377;BME280;35253;34.688;33.040;2023-02-16T04:44:58;101958.53;;;10.54;100.00
49377;BME280;35253;34.688;33.040;2023-02-16T04:47:23;101958.00;;;10.67;100.00
49377;BME280;35253;34.688;33.040;2023-02-16T04:49:51;101966.16;;;10.64;100.00
49377;BME280;35253;34.688;33.040;2023-02-16T04:52:16;101960.59;;;10.70;100.00
49377;BME280;35253;34.688;33.040;2023-02-16T04:54:42;101971.16;;;10.72;100.00
49377;BME280;35253;34.688;33.040;2023-02-16T04:57:07;101977.59;;;10.66;100.00
49377;BME280;35253;34.688;33.040;2023-02-16T04:59:33;101977.81;;;10.62;100.00
49377;BME280;35253;34.688;33.040;2023-02-16T05:01:58;101976.28;;;10.55;100.00
49377;BME280;35253;34.688;33.040;2023-02-16T05:04:24;101973.44;;;10.59;100.00
49377;BME280;35253;34.688;33.040;2023-02-16T05:06:49;101979.88;;;10.54;100.00
49377;BME280;35253;34.688;33.040;2023-02-16T05:09:15;101985.22;;;10.54;100.00
49377;BME280;35253;34.688;33.040;2023-02-16T05:11:40;101995.66;;;10.60;100.00
49377;BME280;35253;34.688;33.040;2023-02-16T05:14:25;102002.59;;;10.64;100.00
49377;BME280;35253;34.688;33.040;2023-02-16T05:17:27;101997.06;;;10.70;100.00
49377;BME280;35253;34.688;33.040;2023-02-16T05:19:52;102003.66;;;10.83;100.00
49377;BME280;35253;34.688;33.040;2023-02-16T05:22:18;102002.81;;;10.81;100.00
49377;BME280;35253;34.688;33.040;2023-02-16T05:24:44;102004.63;;;10.80;100.00
49377;BME280;35253;34.688;33.040;2023-02-16T05:27:11;102006.06;;;10.89;100.00
49377;BME280;35253;34.688;33.040;2023-02-16T05:29:36;102008.38;;;10.98;100.00
49377;BME280;35253;34.688;33.040;2023-02-16T05:32:02;102013.34;;;11.07;100.00
49377;BME280;35253;34.688;33.040;2023-02-16T05:34:27;102018.44;;;11.13;100.00
49377;BME280;35253;34.688;33.040;2023-02-16T05:36:53;102015.34;;;11.24;100.00
49377;BME280;35253;34.688;33.040;2023-02-16T05:39:19;102024.03;;;11.29;100.00
49377;BME280;35253;34.688;33.040;2023-02-16T05:41:45;102023.16;;;11.28;100.00
49377;BME280;35253;34.688;33.040;2023-02-16T05:44:10;102030.88;;;11.36;100.00
49377;BME280;35253;34.688;33.040;2023-02-16T05:46:36;102032.00;;;11.30;100.00
49377;BME280;35253;34.688;33.040;2023-02-16T05:49:03;102042.91;;;11.46;100.00
49377;BME280;35253;34.688;33.040;2023-02-16T05:51:29;102037.44;;;11.49;100.00
49377;BME280;35253;34.688;33.040;2023-02-16T05:53:54;102037.66;;;11.65;100.00
49377;BME280;35253;34.688;33.040;2023-02-16T05:56:20;102043.66;;;11.71;100.00
49377;BME280;35253;34.688;33.040;2023-02-16T05:58:46;102038.78;;;11.81;100.00
49377;BME280;35253;34.688;33.040;2023-02-16T06:01:11;102046.94;;;11.78;100.00
49377;BME280;35253;34.688;33.040;2023-02-16T06:03:37;102056.69;;;11.79;100.00
49377;BME280;35253;34.688;33.040;2023-02-16T06:06:03;102053.03;;;11.82;100.00
49377;BME280;35253;34.688;33.040;2023-02-16T06:08:29;102054.56;;;11.87;100.00
49377;BME280;35253;34.688;33.040;2023-02-16T06:10:55;102057.78;;;11.95;100.00
49377;BME280;35253;34.688;33.040;2023-02-16T06:13:20;102057.25;;;12.07;100.00
49377;BME280;35253;34.688;33.040;2023-02-16T06:15:46;102053.59;;;12.10;99.35
49377;BME280;35253;34.688;33.040;2023-02-16T06:18:14;102051.25;;;12.23;98.65
49377;BME280;35253;34.688;33.040;2023-02-16T06:20:40;102063.38;;;12.30;97.98
49377;BME280;35253;34.688;33.040;2023-02-16T06:23:06;102059.53;;;12.37;97.93
49377;BME280;35253;34.688;33.040;2023-02-16T06:25:32;102062.00;;;12.41;95.47
49377;BME280;35253;34.688;33.040;2023-02-16T06:27:57;102059.66;;;12.34;95.62
49377;BME280;35253;34.688;33.040;2023-02-16T06:30:23;102075.03;;;12.49;95.74
49377;BME280;35253;34.688;33.040;2023-02-16T06:32:48;102068.75;;;12.50;94.32
49377;BME280;35253;34.688;33.040;2023-02-16T06:35:14;102070.84;;;12.62;94.25
49377;BME280;35253;34.688;33.040;2023-02-16T06:37:40;102084.19;;;12.43;95.03
49377;BME280;35253;34.688;33.040;2023-02-16T06:40:05;102075.50;;;12.58;93.08
49377;BME280;35253;34.688;33.040;2023-02-16T06:42:31;102082.28;;;12.65;93.53
49377;BME280;35253;34.688;33.040;2023-02-16T06:44:57;102086.34;;;12.74;91.57
49377;BME280;35253;34.688;33.040;2023-02-16T06:47:22;102078.84;;;12.82;91.99
49377;BME280;35253;34.688;33.040;2023-02-16T06:49:48;102080.31;;;12.89;91.94
49377;BME280;35253;34.688;33.040;2023-02-16T06:52:13;102075.66;;;12.93;90.25
49377;BME280;35253;34.688;33.040;2023-02-16T06:54:39;102077.25;;;12.97;89.10
49377;BME280;35253;34.688;33.040;2023-02-16T06:57:04;102074.38;;;13.01;88.15
49377;BME280;35253;34.688;33.040;2023-02-16T06:59:29;102073.06;;;12.91;86.94
49377;BME280;35253;34.688;33.040;2023-02-16T07:01:55;102082.56;;;12.98;87.10
49377;BME280;35253;34.688;33.040;2023-02-16T07:04:20;102073.97;;;13.11;87.62
49377;BME280;35253;34.688;33.040;2023-02-16T07:06:46;102079.97;;;13.16;86.58
49377;BME280;35253;34.688;33.040;2023-02-16T07:09:11;102080.75;;;13.18;87.76
49377;BME280;35253;34.688;33.040;2023-02-16T07:11:37;102084.69;;;13.29;85.37
49377;BME280;35253;34.688;33.040;2023-02-16T07:14:02;102077.16;;;13.37;81.67
49377;BME280;35253;34.688;33.040;2023-02-16T07:16:28;102080.69;;;13.38;80.42
49377;BME280;35253;34.688;33.040;2023-02-16T07:18:53;102091.75;;;13.30;81.55
49377;BME280;35253;34.688;33.040;2023-02-16T07:21:19;102083.66;;;13.32;81.92
49377;BME280;35253;34.688;33.040;2023-02-16T07:23:44;102088.28;;;13.28;82.06
49377;BME280;35253;34.688;33.040;2023-02-16T07:26:10;102093.78;;;13.44;81.73
49377;BME280;35253;34.688;33.040;2023-02-16T07:28:35;102087.53;;;13.43;81.41
49377;BME280;35253;34.688;33.040;2023-02-16T07:31:05;102089.22;;;13.46;81.52
49377;BME280;35253;34.688;33.040;2023-02-16T07:33:31;102085.78;;;13.61;84.73
49377;BME280;35253;34.688;33.040;2023-02-16T07:35:57;102081.06;;;13.66;84.91
49377;BME280;35253;34.688;33.040;2023-02-16T07:38:22;102086.19;;;13.71;84.53
49377;BME280;35253;34.688;33.040;2023-02-16T07:40:48;102083.47;;;13.53;84.10
49377;BME280;35253;34.688;33.040;2023-02-16T07:43:13;102079.28;;;13.48;85.56
49377;BME280;35253;34.688;33.040;2023-02-16T07:45:38;102084.84;;;13.62;86.37
49377;BME280;35253;34.688;33.040;2023-02-16T07:48:04;102078.22;;;13.69;87.77
49377;BME280;35253;34.688;33.040;2023-02-16T07:50:29;102072.72;;;13.72;90.31
49377;BME280;35253;34.688;33.040;2023-02-16T07:52:55;102088.19;;;13.84;90.29
49377;BME280;35253;34.688;33.040;2023-02-16T07:55:20;102094.59;;;13.82;90.73
49377;BME280;35253;34.688;33.040;2023-02-16T07:57:46;102087.88;;;13.90;91.23
49377;BME280;35253;34.688;33.040;2023-02-16T08:00:13;102085.03;;;13.76;90.69
49377;BME280;35253;34.688;33.040;2023-02-16T08:02:39;102088.03;;;13.87;90.28
49377;BME280;35253;34.688;33.040;2023-02-16T08:05:05;102094.66;;;13.80;91.68
49377;BME280;35253;34.688;33.040;2023-02-16T08:07:30;102092.28;;;13.91;91.73
49377;BME280;35253;34.688;33.040;2023-02-16T08:09:55;102094.25;;;13.88;91.86
49377;BME280;35253;34.688;33.040;2023-02-16T08:12:21;102094.28;;;13.69;93.38
49377;BME280;35253;34.688;33.040;2023-02-16T08:14:46;102093.47;;;13.86;96.62
49377;BME280;35253;34.688;33.040;2023-02-16T08:17:12;102092.28;;;14.09;98.06
49377;BME280;35253;34.688;33.040;2023-02-16T08:19:38;102093.09;;;14.11;99.63
49377;BME280;35253;34.688;33.040;2023-02-16T08:22:04;102094.03;;;14.10;99.40
49377;BME280;35253;34.688;33.040;2023-02-16T08:24:30;102093.09;;;14.11;98.99
49377;BME280;35253;34.688;33.040;2023-02-16T08:26:58;102090.25;;;14.14;97.21
49377;BME280;35253;34.688;33.040;2023-02-16T08:29:24;102092.16;;;14.12;97.52
49377;BME280;35253;34.688;33.040;2023-02-16T08:31:49;102092.00;;;14.15;99.41
49377;BME280;35253;34.688;33.040;2023-02-16T08:34:16;102089.94;;;14.20;99.71
49377;BME280;35253;34.688;33.040;2023-02-16T08:36:43;102091.50;;;14.24;100.00
49377;BME280;35253;34.688;33.040;2023-02-16T08:41:38;102088.19;;;14.19;95.21
49377;BME280;35253;34.688;33.040;2023-02-16T08:44:05;102088.75;;;14.25;97.30
49377;BME280;35253;34.688;33.040;2023-02-16T08:46:31;102080.16;;;14.36;96.66
49377;BME280;35253;34.688;33.040;2023-02-16T08:48:57;102082.53;;;14.25;97.60
49377;BME280;35253;34.688;33.040;2023-02-16T08:51:24;102081.25;;;14.32;99.21
49377;BME280;35253;34.688;33.040;2023-02-16T08:53:50;102083.47;;;14.41;98.98
49377;BME280;35253;34.688;33.040;2023-02-16T08:56:16;102083.31;;;14.44;100.00
49377;BME280;35253;34.688;33.040;2023-02-16T08:58:42;102086.38;;;14.54;100.00
49377;BME280;35253;34.688;33.040;2023-02-16T09:01:08;102083.81;;;14.52;100.00
49377;BME280;35253;34.688;33.040;2023-02-16T09:03:34;102090.63;;;14.58;97.57
49377;BME280;35253;34.688;33.040;2023-02-16T09:06:01;102088.06;;;14.56;99.54
49377;BME280;35253;34.688;33.040;2023-02-16T09:08:27;102086.13;;;14.58;99.04
49377;BME280;35253;34.688;33.040;2023-02-16T09:10:52;102093.06;;;14.62;98.52
49377;BME280;35253;34.688;33.040;2023-02-16T09:13:18;102091.69;;;14.55;95.33
49377;BME280;35253;34.688;33.040;2023-02-16T09:15:43;102091.34;;;14.61;94.91
49377;BME280;35253;34.688;33.040;2023-02-16T09:18:09;102087.00;;;14.59;94.22
49377;BME280;35253;34.688;33.040;2023-02-16T09:20:37;102094.56;;;14.68;96.49
49377;BME280;35253;34.688;33.040;2023-02-16T09:23:03;102092.34;;;14.76;94.84
49377;BME280;35253;34.688;33.040;2023-02-16T09:25:29;102094.78;;;14.80;96.55
49377;BME280;35253;34.688;33.040;2023-02-16T09:27:55;102100.19;;;14.63;97.34
49377;BME280;35253;34.688;33.040;2023-02-16T09:30:20;102102.31;;;14.74;97.36
49377;BME280;35253;34.688;33.040;2023-02-16T09:32:46;102110.50;;;15.04;96.51
49377;BME280;35253;34.688;33.040;2023-02-16T09:35:12;102110.78;;;15.15;99.79
49377;BME280;35253;34.688;33.040;2023-02-16T09:37:37;102111.06;;;15.26;98.26
49377;BME280;35253;34.688;33.040;2023-02-16T09:40:02;102117.31;;;15.26;98.43
49377;BME280;35253;34.688;33.040;2023-02-16T09:45:14;102115.50;;;15.58;95.73
49377;BME280;35253;34.688;33.040;2023-02-16T09:47:42;102109.16;;;15.59;95.47
49377;BME280;35253;34.688;33.040;2023-02-16T09:50:25;102108.38;;;15.42;93.42
49377;BME280;35253;34.688;33.040;2023-02-16T09:52:57;102115.53;;;15.10;95.50
49377;BME280;35253;34.688;33.040;2023-02-16T09:55:24;102117.81;;;15.33;96.91
49377;BME280;35253;34.688;33.040;2023-02-16T09:58:36;102114.34;;;15.31;96.65
49377;BME280;35253;34.688;33.040;2023-02-16T10:00:50;102114.56;;;15.59;97.84
49377;BME280;35253;34.688;33.040;2023-02-16T10:03:37;102110.59;;;15.49;98.46
49377;BME280;35253;34.688;33.040;2023-02-16T10:06:19;102114.28;;;15.80;95.53
49377;BME280;35253;34.688;33.040;2023-02-16T10:08:56;102115.91;;;15.35;96.02
49377;BME280;35253;34.688;33.040;2023-02-16T10:14:30;102113.69;;;15.74;96.43
49377;BME280;35253;34.688;33.040;2023-02-16T10:17:02;102107.78;;;15.84;96.98
49377;BME280;35253;34.688;33.040;2023-02-16T10:19:38;102105.16;;;15.19;98.17
49377;BME280;35253;34.688;33.040;2023-02-16T10:22:06;102107.13;;;15.16;100.00
49377;BME280;35253;34.688;33.040;2023-02-16T10:27:20;102103.00;;;14.77;100.00
49377;BME280;35253;34.688;33.040;2023-02-16T10:29:47;102102.00;;;14.96;100.00
49377;BME280;35253;34.688;33.040;2023-02-16T10:32:24;102100.53;;;15.06;100.00
49377;BME280;35253;34.688;33.040;2023-02-16T10:39:44;102090.25;;;15.45;99.46
49377;BME280;35253;34.688;33.040;2023-02-16T10:42:16;102085.34;;;15.53;99.57
49377;BME280;35253;34.688;33.040;2023-02-16T10:44:44;102096.41;;;16.08;95.31
49377;BME280;35253;34.688;33.040;2023-02-16T10:47:45;102093.19;;;15.72;92.39
49377;BME280;35253;34.688;33.040;2023-02-16T10:50:04;102088.44;;;16.07;89.33
49377;BME280;35253;34.688;33.040;2023-02-16T10:52:34;102086.88;;;16.03;90.52
49377;BME280;35253;34.688;33.040;2023-02-16T10:55:01;102091.72;;;16.12;89.68
49377;BME280;35253;34.688;33.040;2023-02-16T10:57:30;102089.69;;;15.86;91.53
49377;BME280;35253;34.688;33.040;2023-02-16T10:59:58;102094.94;;;15.73;90.53
49377;BME280;35253;34.688;33.040;2023-02-16T11:02:27;102088.44;;;16.07;90.54
49377;BME280;35253;34.688;33.040;2023-02-16T11:04:57;102093.72;;;15.78;90.94
49377;BME280;35253;34.688;33.040;2023-02-16T11:07:24;102101.00;;;15.76;94.19
49377;BME280;35253;34.688;33.040;2023-02-16T11:09:51;102092.88;;;15.31;93.46
49377;BME280;35253;34.688;33.040;2023-02-16T11:12:25;102100.84;;;15.48;91.85
49377;BME280;35253;34.688;33.040;2023-02-16T11:15:03;102099.94;;;15.32;96.24
49377;BME280;35253;34.688;33.040;2023-02-16T11:17:30;102100.69;;;15.51;94.16
49377;BME280;35253;34.688;33.040;2023-02-16T11:20:00;102095.09;;;15.39;91.87
49377;BME280;35253;34.688;33.040;2023-02-16T11:22:34;102100.94;;;15.31;96.10
49377;BME280;35253;34.688;33.040;2023-02-16T11:25:21;102088.88;;;15.38;95.59
49377;BME280;35253;34.688;33.040;2023-02-16T11:27:51;102096.41;;;15.16;99.26
49377;BME280;35253;34.688;33.040;2023-02-16T11:30:18;102088.84;;;15.07;98.81
49377;BME280;35253;34.688;33.040;2023-02-16T11:32:49;102091.50;;;15.55;94.64
49377;BME280;35253;34.688;33.040;2023-02-16T11:35:15;102085.06;;;15.26;91.83
49377;BME280;35253;34.688;33.040;2023-02-16T11:37:41;102088.03;;;15.53;91.14
49377;BME280;35253;34.688;33.040;2023-02-16T11:40:17;102085.72;;;15.93;90.74
49377;BME280;35253;34.688;33.040;2023-02-16T11:42:44;102090.66;;;15.85;89.26
49377;BME280;35253;34.688;33.040;2023-02-16T11:45:24;102088.97;;;15.98;87.49
49377;BME280;35253;34.688;33.040;2023-02-16T11:47:55;102089.34;;;15.92;90.92
49377;BME280;35253;34.688;33.040;2023-02-16T11:50:28;102090.38;;;15.89;91.06
49377;BME280;35253;34.688;33.040;2023-02-16T11:55:46;102082.47;;;16.32;84.32
49377;BME280;35253;34.688;33.040;2023-02-16T11:58:13;102080.69;;;16.16;82.00
49377;BME280;35253;34.688;33.040;2023-02-16T12:00:40;102083.59;;;15.98;82.15
49377;BME280;35253;34.688;33.040;2023-02-16T12:03:13;102084.38;;;16.00;83.10
49377;BME280;35253;34.688;33.040;2023-02-16T12:13:40;102089.34;;;15.92;83.48
49377;BME280;35253;34.688;33.040;2023-02-16T12:19:00;102089.16;;;16.83;78.31
49377;BME280;35253;34.688;33.040;2023-02-16T12:21:46;102092.88;;;17.23;75.62
49377;BME280;35253;34.688;33.040;2023-02-16T12:29:12;102091.28;;;17.47;74.78
49377;BME280;35253;34.688;33.040;2023-02-16T12:36:40;102097.25;;;16.97;75.44
49377;BME280;35253;34.688;33.040;2023-02-16T12:41:51;102094.63;;;16.81;76.26
49377;BME280;35253;34.688;33.040;2023-02-16T12:44:42;102090.50;;;16.61;75.58
49377;BME280;35253;34.688;33.040;2023-02-16T12:47:10;102083.59;;;16.57;76.83
49377;BME280;35253;34.688;33.040;2023-02-16T12:52:11;102096.16;;;16.57;77.03
49377;BME280;35253;34.688;33.040;2023-02-16T12:54:47;102096.97;;;16.43;80.12
49377;BME280;35253;34.688;33.040;2023-02-16T12:57:15;102104.09;;;15.85;83.73
49377;BME280;35253;34.688;33.040;2023-02-16T12:59:58;102098.78;;;15.99;84.45
49377;BME280;35253;34.688;33.040;2023-02-16T13:04:57;102104.31;;;15.50;86.89
49377;BME280;35253;34.688;33.040;2023-02-16T13:07:30;102111.22;;;15.86;86.81
49377;BME280;35253;34.688;33.040;2023-02-16T13:10:01;102105.00;;;15.38;88.17
49377;BME280;35253;34.688;33.040;2023-02-16T13:17:33;102108.66;;;14.88;93.68
49377;BME280;35253;34.688;33.040;2023-02-16T13:19:59;102117.75;;;14.86;93.37
49377;BME280;35253;34.688;33.040;2023-02-16T13:22:30;102116.19;;;14.82;94.89
49377;BME280;35253;34.688;33.040;2023-02-16T13:25:07;102112.91;;;14.60;95.51
49377;BME280;35253;34.688;33.040;2023-02-16T13:27:50;102111.38;;;14.71;95.68
49377;BME280;35253;34.688;33.040;2023-02-16T13:30:38;102099.75;;;15.04;93.97
49377;BME280;35253;34.688;33.040;2023-02-16T13:33:20;102096.66;;;15.27;89.24
49377;BME280;35253;34.688;33.040;2023-02-16T13:36:02;102092.22;;;14.95;89.56
49377;BME280;35253;34.688;33.040;2023-02-16T13:41:28;102096.75;;;15.41;88.71
49377;BME280;35253;34.688;33.040;2023-02-16T13:46:43;102095.38;;;15.65;90.35
49377;BME280;35253;34.688;33.040;2023-02-16T13:51:51;102097.84;;;15.84;91.18
49377;BME280;35253;34.688;33.040;2023-02-16T13:54:26;102091.25;;;15.90;91.98
49377;BME280;35253;34.688;33.040;2023-02-16T13:56:52;102087.63;;;15.91;92.54
49377;BME280;35253;34.688;33.040;2023-02-16T14:01:44;102095.91;;;16.02;92.75
49377;BME280;35253;34.688;33.040;2023-02-16T14:06:48;102108.25;;;16.06;90.90
49377;BME280;35253;34.688;33.040;2023-02-16T14:17:14;102105.50;;;16.21;85.94
49377;BME280;35253;34.688;33.040;2023-02-16T14:22:19;102101.06;;;16.20;85.96
49377;BME280;35253;34.688;33.040;2023-02-16T14:24:52;102106.84;;;16.14;86.16
49377;BME280;35253;34.688;33.040;2023-02-16T14:30:02;102098.94;;;15.34;87.96